Terminal Aerodrome Forecast
Issued by NWS

Home | Current Version | Previous Version | Text Only | Print | Product List | Glossary On
Versions: 1 2 3 4 5 6 7 8 9 10 11 12 13 14 15 16
000
FTUS45 KTFX 260542
TAFGTF
TAF
KGTF 260542Z 2606/2706 24006KT P6SM FEW100 SCT150
     FM260800 23006KT P6SM SKC
     FM261600 23009KT P6SM SCT120
     FM262300 23008KT P6SM VCTS SCT060CB
     FM270200 01012KT P6SM VCTS BKN060CB OVC090 PROB30 2702/2706
      VRB20G30KT -TSRA=

USA.gov is the U.S. government's official web portal to all federal, state and local government web resources and services.